Churchland, North Carolina
Current Conditions -  °F | °C
As of 3:55 AM on Sunday 26 Oct 2014 (Local Time) from KEXX Reporting Station
Clear Clear  
Wind Chill: 45°   Ceiling: Unl
Heat Index: 45°   Visibility: 10mi
Dew Point: 43°   Wind: 0mph
Humidity: 92%   Direction: NA
Pressure: 29.88"   Gusts: NA
Location:  35.7974°N, 80.2541°W
Report Text: KEXX 260755Z AUTO 00000KT 10SM CLR 07/06 A2988 RMK AO2 T00740062
Loading
Personal Weather Stations






























Interactive Weather Map New forecast layout! Learn more

10-Day Weather Forecast

Advertisements
Track Severe Weather on mobile